createdAt,value
2022-10-22T00:00:47.639Z,15.40
2022-10-22T00:03:14.402Z,15.40
2022-10-22T00:05:41.392Z,15.40
2022-10-22T00:08:08.147Z,15.30
2022-10-22T00:10:38.600Z,15.30
2022-10-22T00:13:05.333Z,15.40
2022-10-22T00:15:33.869Z,15.40
2022-10-22T00:18:00.664Z,15.50
2022-10-22T00:20:27.421Z,15.40
2022-10-22T00:22:56.163Z,15.50
2022-10-22T00:25:24.087Z,15.50
2022-10-22T00:27:50.879Z,15.40
2022-10-22T00:30:17.709Z,15.40
2022-10-22T00:32:44.534Z,15.50
2022-10-22T00:35:11.499Z,15.40
2022-10-22T00:37:38.337Z,15.50
2022-10-22T00:40:05.552Z,15.50
2022-10-22T00:42:32.376Z,15.50
2022-10-22T00:45:08.223Z,15.80
2022-10-22T00:47:58.462Z,15.50
2022-10-22T00:50:48.108Z,15.50
2022-10-22T00:53:19.391Z,15.60
2022-10-22T00:55:50.049Z,15.50
2022-10-22T00:58:18.288Z,15.50
2022-10-22T01:00:45.035Z,15.50
2022-10-22T01:03:12.151Z,15.70
2022-10-22T01:05:55.529Z,15.50
2022-10-22T01:09:18.398Z,15.50
2022-10-22T01:12:14.759Z,15.40
2022-10-22T01:15:02.764Z,15.40
2022-10-22T01:17:42.990Z,15.40
2022-10-22T01:20:33.977Z,15.40
2022-10-22T01:23:31.101Z,15.50
2022-10-22T01:26:10.790Z,15.50
2022-10-22T01:29:07.498Z,15.40
2022-10-22T01:31:40.083Z,15.40
2022-10-22T01:34:10.527Z,15.30
2022-10-22T01:36:39.427Z,15.30
2022-10-22T01:39:08.418Z,15.20
2022-10-22T01:41:35.824Z,15.40
2022-10-22T01:44:02.670Z,15.10
2022-10-22T01:46:30.049Z,15.20
2022-10-22T01:49:49.320Z,15.20
2022-10-22T01:52:45.886Z,15.20
2022-10-22T01:55:24.511Z,15.20
2022-10-22T01:58:10.111Z,15.10
2022-10-22T02:00:47.702Z,15.10
2022-10-22T02:03:23.680Z,15.10
2022-10-22T02:05:58.728Z,15.10
2022-10-22T02:08:33.582Z,15.10
2022-10-22T02:11:01.548Z,15.20
2022-10-22T02:13:41.727Z,15.10
2022-10-22T02:16:12.916Z,15.00
2022-10-22T02:18:42.825Z,15.00
2022-10-22T02:21:10.864Z,15.00
2022-10-22T02:23:38.422Z,15.00
2022-10-22T02:26:33.557Z,15.10
2022-10-22T02:29:16.190Z,15.20
2022-10-22T02:31:46.903Z,15.20
2022-10-22T02:34:19.464Z,15.20
2022-10-22T02:36:50.364Z,15.10
2022-10-22T02:39:18.892Z,15.10
2022-10-22T02:41:45.679Z,15.00
2022-10-22T02:44:13.491Z,15.10
2022-10-22T02:46:40.911Z,15.00
2022-10-22T02:49:07.688Z,15.00
2022-10-22T02:51:34.946Z,15.00
2022-10-22T02:54:01.812Z,15.00
2022-10-22T02:56:28.568Z,15.10
2022-10-22T02:58:56.430Z,15.10
2022-10-22T03:01:23.319Z,15.10
2022-10-22T03:03:50.270Z,15.10
2022-10-22T03:06:18.000Z,15.10
2022-10-22T03:08:45.014Z,15.00
2022-10-22T03:11:11.789Z,15.00
2022-10-22T03:13:39.780Z,15.00
2022-10-22T03:16:07.182Z,14.90
2022-10-22T03:18:35.057Z,15.00
2022-10-22T03:21:11.145Z,14.90
2022-10-22T03:23:39.227Z,15.00
2022-10-22T03:26:07.028Z,15.00
2022-10-22T03:28:36.051Z,15.00
2022-10-22T03:31:04.126Z,15.20
2022-10-22T03:33:30.828Z,15.10
2022-10-22T03:35:58.160Z,15.10
2022-10-22T03:38:25.129Z,15.10
2022-10-22T03:45:08.553Z,15.20
2022-10-22T03:47:36.633Z,15.30
2022-10-22T03:50:05.841Z,15.40
2022-10-22T03:52:38.329Z,15.30
2022-10-22T03:55:06.933Z,15.30
2022-10-22T03:57:33.693Z,15.30
2022-10-22T04:00:00.486Z,15.30
2022-10-22T04:02:27.305Z,15.30
2022-10-22T04:04:54.239Z,15.30
2022-10-22T04:07:21.122Z,15.20
2022-10-22T04:09:52.600Z,15.10
2022-10-22T04:12:25.499Z,15.00
2022-10-22T04:14:52.489Z,14.90
2022-10-22T04:17:21.277Z,14.90
2022-10-22T04:20:04.814Z,14.90
2022-10-22T04:22:41.885Z,14.90
2022-10-22T04:25:11.837Z,14.90
2022-10-22T04:27:41.887Z,14.90
2022-10-22T04:30:12.657Z,15.00
2022-10-22T04:32:39.430Z,14.90
2022-10-22T04:35:06.665Z,15.00
2022-10-22T04:37:34.079Z,14.90
2022-10-22T04:40:01.030Z,15.00
2022-10-22T04:42:27.744Z,14.90
2022-10-22T04:44:54.613Z,14.90
2022-10-22T04:47:21.609Z,14.90
2022-10-22T04:49:48.689Z,15.00
2022-10-22T04:52:16.458Z,14.90
2022-10-22T04:54:43.270Z,14.90
2022-10-22T04:57:10.017Z,14.90
2022-10-22T04:59:36.753Z,14.90
2022-10-22T05:02:03.784Z,14.90
2022-10-22T05:04:30.608Z,14.80
2022-10-22T05:06:57.753Z,14.80
2022-10-22T05:09:24.681Z,14.70
2022-10-22T05:11:52.667Z,14.70
2022-10-22T05:14:22.356Z,14.70
2022-10-22T05:16:49.834Z,14.70
2022-10-22T05:19:26.733Z,14.70
2022-10-22T05:22:00.226Z,14.60
2022-10-22T05:24:32.908Z,14.60
2022-10-22T05:27:00.382Z,14.50
2022-10-22T05:29:27.827Z,14.50
2022-10-22T05:31:55.194Z,14.60
2022-10-22T05:34:23.008Z,14.60
2022-10-22T05:36:55.604Z,14.50
2022-10-22T05:39:22.318Z,14.50
2022-10-22T05:41:49.222Z,14.50
2022-10-22T05:44:15.986Z,14.50
2022-10-22T05:46:43.448Z,14.50
2022-10-22T05:49:13.702Z,14.40
2022-10-22T05:51:40.567Z,14.40
2022-10-22T05:54:08.328Z,14.50
2022-10-22T05:56:35.527Z,14.40
2022-10-22T06:01:32.447Z,14.40
2022-10-22T06:04:04.859Z,14.40
2022-10-22T06:06:36.275Z,14.40
2022-10-22T06:09:29.044Z,14.50
2022-10-22T06:12:12.796Z,14.30
2022-10-22T06:14:39.610Z,14.20
2022-10-22T06:17:06.367Z,14.40
2022-10-22T06:19:34.151Z,14.40
2022-10-22T06:22:00.869Z,14.30
2022-10-22T06:24:27.840Z,14.40
2022-10-22T06:26:54.722Z,14.40
2022-10-22T06:29:22.700Z,14.50
2022-10-22T06:31:51.989Z,14.50
2022-10-22T06:34:21.152Z,14.70
2022-10-22T06:36:48.306Z,15.00
2022-10-22T06:39:17.069Z,14.90
2022-10-22T06:41:44.825Z,15.00
2022-10-22T06:44:16.338Z,15.30
2022-10-22T06:46:45.202Z,15.10
2022-10-22T06:49:29.169Z,15.20
2022-10-22T06:51:55.871Z,15.30
2022-10-22T06:54:27.073Z,15.30
2022-10-22T06:56:56.587Z,15.20
2022-10-22T06:59:23.542Z,15.40
2022-10-22T07:01:53.486Z,15.40
2022-10-22T07:04:36.698Z,15.50
2022-10-22T07:07:09.503Z,15.50
2022-10-22T07:09:54.640Z,15.60
2022-10-22T07:12:27.166Z,15.60
2022-10-22T07:15:09.836Z,15.60
2022-10-22T07:26:55.291Z,15.30
2022-10-22T07:32:37.167Z,15.30
2022-10-22T07:35:08.459Z,15.40
2022-10-22T07:40:52.187Z,15.50
2022-10-22T07:43:34.539Z,15.60
2022-10-22T07:46:16.599Z,15.40
2022-10-22T07:49:42.188Z,15.80
2022-10-22T07:52:44.428Z,16.00
2022-10-22T07:55:26.687Z,16.10
2022-10-22T08:07:40.209Z,16.30
2022-10-22T08:10:56.872Z,16.40
2022-10-22T08:13:45.115Z,16.70
2022-10-22T08:16:37.748Z,17.10
2022-10-22T08:19:32.419Z,17.30
2022-10-22T08:22:02.660Z,17.20
2022-10-22T08:24:33.203Z,17.30
2022-10-22T08:27:00.318Z,17.50
2022-10-22T08:29:27.224Z,17.70
2022-10-22T08:35:05.610Z,17.90
2022-10-22T08:37:33.490Z,17.80
2022-10-22T08:44:00.204Z,17.80
2022-10-22T08:47:24.474Z,17.50
2022-10-22T08:53:52.632Z,17.30
2022-10-22T09:03:14.996Z,17.60
2022-10-22T09:06:11.109Z,17.50
2022-10-22T09:08:48.033Z,17.70
2022-10-22T09:15:26.955Z,17.90
2022-10-22T09:19:03.802Z,18.00
2022-10-22T09:21:49.784Z,18.10
2022-10-22T09:28:30.833Z,18.40
2022-10-22T09:37:46.704Z,18.90
2022-10-22T09:40:32.099Z,19.20
2022-10-22T09:42:58.889Z,19.40
2022-10-22T09:45:42.699Z,19.70
2022-10-22T09:49:28.513Z,19.80
2022-10-22T09:56:45.742Z,20.20
2022-10-22T10:00:08.750Z,20.00
2022-10-22T10:09:15.789Z,20.30
2022-10-22T10:15:42.462Z,20.10
2022-10-22T10:18:37.106Z,20.10
2022-10-22T10:21:31.863Z,20.10
2022-10-22T10:29:51.378Z,19.60
2022-10-22T10:32:39.235Z,19.40
2022-10-22T10:35:56.763Z,19.10
2022-10-22T10:39:04.268Z,19.00
2022-10-22T10:45:55.725Z,18.80
2022-10-22T10:48:55.560Z,19.00
2022-10-22T10:54:45.448Z,19.30
2022-10-22T10:58:17.905Z,19.70
2022-10-22T11:01:54.171Z,19.90
2022-10-22T11:08:19.892Z,20.10
2022-10-22T11:10:54.749Z,20.30
2022-10-22T11:14:02.751Z,20.40
2022-10-22T11:17:36.357Z,20.60
2022-10-22T11:20:40.801Z,20.50
2022-10-22T11:26:29.346Z,20.20
2022-10-22T11:29:09.758Z,20.20
2022-10-22T11:31:40.838Z,20.30
2022-10-22T11:34:55.377Z,20.40
2022-10-22T11:38:01.785Z,20.10
2022-10-22T11:44:15.031Z,20.00
2022-10-22T11:46:56.675Z,20.20
2022-10-22T11:49:43.389Z,20.40
2022-10-22T11:52:32.602Z,20.70
2022-10-22T12:02:27.998Z,20.80
2022-10-22T12:33:13.512Z,20.60
2022-10-22T12:43:07.411Z,21.50
2022-10-22T12:46:31.099Z,21.70
2022-10-22T12:49:50.176Z,21.40
2022-10-22T12:56:11.346Z,21.30
2022-10-22T12:59:45.845Z,21.20
2022-10-22T13:03:32.605Z,21.00
2022-10-22T13:06:34.409Z,20.80
2022-10-22T13:09:23.748Z,20.60
2022-10-22T13:27:32.343Z,20.90
2022-10-22T13:31:05.139Z,20.60
2022-10-22T13:34:18.350Z,20.70
2022-10-22T13:40:32.055Z,20.70
2022-10-22T13:46:07.821Z,21.90
2022-10-22T13:48:45.775Z,22.20
2022-10-22T13:54:52.783Z,21.70
2022-10-22T13:57:17.893Z,21.20
2022-10-22T14:03:17.303Z,21.60
2022-10-22T14:09:15.672Z,23.10
2022-10-22T14:21:54.520Z,21.60
2022-10-22T14:28:18.407Z,21.40
2022-10-22T14:34:49.672Z,22.70
2022-10-22T14:40:23.622Z,22.40
2022-10-22T14:42:50.487Z,22.10
2022-10-22T14:45:41.841Z,21.90
2022-10-22T14:48:21.024Z,22.00
2022-10-22T14:51:48.527Z,22.30
2022-10-22T14:55:08.392Z,22.10
2022-10-22T14:57:35.150Z,21.50
2022-10-22T15:00:06.902Z,20.90
2022-10-22T15:07:10.409Z,20.30
2022-10-22T15:10:28.410Z,19.90
2022-10-22T15:13:06.370Z,19.90
2022-10-22T15:19:46.815Z,19.80
2022-10-22T15:22:37.941Z,19.70
2022-10-22T15:28:09.204Z,19.60
2022-10-22T15:31:43.916Z,19.60
2022-10-22T15:34:45.363Z,19.40
2022-10-22T15:37:21.667Z,19.30
2022-10-22T15:39:58.634Z,19.00
2022-10-22T15:45:51.325Z,19.30
2022-10-22T15:48:32.344Z,19.00
2022-10-22T15:51:24.782Z,19.00
2022-10-22T15:54:00.773Z,18.80
2022-10-22T15:56:40.518Z,18.90
2022-10-22T15:59:21.471Z,18.70
2022-10-22T16:02:17.624Z,18.60
2022-10-22T16:04:59.983Z,18.60
2022-10-22T16:08:17.739Z,18.50
2022-10-22T16:10:48.507Z,18.40
2022-10-22T16:13:41.017Z,18.30
2022-10-22T16:16:42.603Z,18.30
2022-10-22T16:19:38.691Z,18.20
2022-10-22T16:22:06.251Z,18.30
2022-10-22T16:24:35.960Z,18.00
2022-10-22T16:30:43.417Z,17.90
2022-10-22T16:33:16.278Z,17.70
2022-10-22T16:37:06.462Z,17.60
2022-10-22T16:42:15.332Z,17.30
2022-10-22T16:44:55.842Z,17.20
2022-10-22T16:50:53.309Z,17.30
2022-10-22T16:56:52.158Z,17.40
2022-10-22T16:59:31.176Z,17.40
2022-10-22T17:02:56.776Z,17.40
2022-10-22T17:05:43.488Z,17.40
2022-10-22T17:08:11.204Z,17.30
2022-10-22T17:11:40.145Z,17.30
2022-10-22T17:20:43.406Z,16.90
2022-10-22T17:23:17.226Z,16.80
2022-10-22T17:28:45.515Z,16.70
2022-10-22T17:34:33.217Z,16.70
2022-10-22T17:37:08.576Z,16.70
2022-10-22T17:40:10.325Z,16.80
2022-10-22T17:45:46.177Z,16.70
2022-10-22T17:48:13.277Z,16.60
2022-10-22T17:51:20.868Z,16.40
2022-10-22T17:53:47.881Z,16.50
2022-10-22T17:56:43.970Z,16.40
2022-10-22T17:59:46.104Z,16.20
2022-10-22T18:02:56.988Z,16.30
2022-10-22T18:05:33.912Z,16.30
2022-10-22T18:11:37.835Z,16.30
2022-10-22T18:14:13.659Z,16.20
2022-10-22T18:17:01.202Z,16.20
2022-10-22T18:20:58.391Z,16.20
2022-10-22T18:22:54.559Z,16.10
2022-10-22T18:26:00.206Z,16.10
2022-10-22T18:28:38.330Z,16.10
2022-10-22T18:34:03.410Z,16.10
2022-10-22T18:39:41.903Z,16.10
2022-10-22T18:42:08.781Z,16.00
2022-10-22T18:44:37.558Z,16.00
2022-10-22T18:47:31.826Z,15.80
2022-10-22T18:50:02.140Z,16.10
2022-10-22T18:52:30.247Z,15.90
2022-10-22T18:55:03.479Z,16.10
2022-10-22T18:57:32.648Z,15.90
2022-10-22T19:03:52.800Z,15.90
2022-10-22T19:06:47.083Z,16.00
2022-10-22T19:09:34.346Z,16.00
2022-10-22T19:12:05.963Z,15.90
2022-10-22T19:14:35.898Z,15.90
2022-10-22T19:17:13.424Z,15.90
2022-10-22T19:19:51.565Z,15.90
2022-10-22T19:22:20.835Z,15.90
2022-10-22T19:28:38.456Z,15.90
2022-10-22T19:34:17.519Z,15.90
2022-10-22T19:36:44.429Z,15.80
2022-10-22T19:39:39.535Z,15.80
2022-10-22T19:42:06.478Z,15.70
2022-10-22T19:45:27.077Z,15.70
2022-10-22T19:47:55.032Z,15.70
2022-10-22T19:50:23.950Z,15.70
2022-10-22T19:52:53.297Z,15.70
2022-10-22T19:55:24.440Z,15.60
2022-10-22T20:00:39.696Z,15.80
2022-10-22T20:03:33.168Z,15.90
2022-10-22T20:06:11.707Z,15.70
2022-10-22T20:09:58.046Z,15.80
2022-10-22T20:15:14.535Z,15.70
2022-10-22T20:20:57.735Z,15.70
2022-10-22T20:23:24.759Z,15.60
2022-10-22T20:25:51.789Z,15.60
2022-10-22T20:28:49.830Z,15.60
2022-10-22T20:31:20.044Z,15.50
2022-10-22T20:33:48.144Z,15.50
2022-10-22T20:36:22.567Z,15.50
2022-10-22T20:38:50.819Z,15.50
2022-10-22T20:41:23.956Z,15.50
2022-10-22T20:44:42.514Z,15.50
2022-10-22T20:48:09.737Z,15.70
2022-10-22T20:50:43.129Z,15.60
2022-10-22T20:53:16.672Z,15.50
2022-10-22T20:56:16.119Z,15.60
2022-10-22T20:58:48.010Z,15.60
2022-10-22T21:01:24.325Z,15.50
2022-10-22T21:03:55.223Z,15.60
2022-10-22T21:06:23.308Z,15.60
2022-10-22T21:08:51.434Z,15.60
2022-10-22T21:11:20.514Z,15.50
2022-10-22T21:13:48.591Z,15.50
2022-10-22T21:16:23.432Z,15.50
2022-10-22T21:18:56.538Z,15.50
2022-10-22T21:21:23.484Z,15.40
2022-10-22T21:23:51.659Z,15.50
2022-10-22T21:26:20.242Z,15.50
2022-10-22T21:28:47.105Z,15.50
2022-10-22T21:31:21.454Z,15.40
2022-10-22T21:33:50.034Z,15.50
2022-10-22T21:36:22.435Z,15.40
2022-10-22T21:38:51.865Z,15.40
2022-10-22T21:41:22.568Z,15.40
2022-10-22T21:43:50.633Z,15.30
2022-10-22T21:46:20.157Z,15.30
2022-10-22T21:48:53.876Z,15.20
2022-10-22T21:51:23.451Z,15.20
2022-10-22T21:56:36.123Z,15.20
2022-10-22T21:59:05.508Z,15.20
2022-10-22T22:01:33.102Z,15.20
2022-10-22T22:04:00.405Z,15.20
2022-10-22T22:06:30.714Z,15.10
2022-10-22T22:09:00.068Z,15.00
2022-10-22T22:11:36.440Z,15.10
2022-10-22T22:14:03.475Z,15.00
2022-10-22T22:16:32.822Z,14.90
2022-10-22T22:19:06.013Z,15.00
2022-10-22T22:21:33.700Z,15.00
2022-10-22T22:24:00.597Z,15.00
2022-10-22T22:26:30.105Z,14.80
2022-10-22T22:28:58.795Z,14.80
2022-10-22T22:31:28.643Z,14.80
2022-10-22T22:34:10.335Z,14.80
2022-10-22T22:36:40.395Z,14.70
2022-10-22T22:39:12.898Z,14.70
2022-10-22T22:41:40.875Z,14.50
2022-10-22T22:44:08.274Z,14.70
2022-10-22T22:46:35.621Z,14.60
2022-10-22T22:49:03.118Z,14.60
2022-10-22T22:51:30.710Z,14.70
2022-10-22T22:53:58.859Z,14.70
2022-10-22T22:56:28.240Z,14.70
2022-10-22T22:58:55.610Z,14.70
2022-10-22T23:01:28.505Z,14.80
2022-10-22T23:03:58.790Z,14.80
2022-10-22T23:06:28.482Z,14.80
2022-10-22T23:08:56.370Z,14.80
2022-10-22T23:11:24.860Z,14.80
2022-10-22T23:13:54.492Z,14.80
2022-10-22T23:16:23.604Z,14.80
2022-10-22T23:18:54.283Z,14.80
2022-10-22T23:21:28.347Z,14.80
2022-10-22T23:23:57.873Z,14.70
2022-10-22T23:26:45.710Z,14.90
2022-10-22T23:29:24.957Z,14.70
2022-10-22T23:31:52.900Z,14.60
2022-10-22T23:34:25.034Z,14.60
2022-10-22T23:36:53.151Z,14.50
2022-10-22T23:39:24.253Z,14.50
2022-10-22T23:41:53.049Z,14.60
2022-10-22T23:44:20.515Z,14.40
2022-10-22T23:46:47.461Z,14.50
2022-10-22T23:49:15.209Z,14.30
2022-10-22T23:51:42.176Z,14.30
2022-10-22T23:54:13.025Z,14.30
2022-10-22T23:56:40.132Z,14.30
2022-10-22T23:59:07.934Z,14.30
